الصفحة الرئيسية
METAR-TAF:

METAR-TAF

مطار :

مطار خوسيه مارتي الدولي

هافانا, كوبا

دائرة عرض: 22-59N, خط طول: 082-24W, ارتفاع: 59 متر

مراقبة الطقس الحالي

تاريخ ووقت الإصدار 26 دقيقة قبل الساعة 15:55UTC
ريح 9 عقدة من الجنوب, الاتجاه يتراوح بين الجنوب الشرقي و الجنوب الغربي
درجة الحرارة 29°درجة مئوية
الرطوبة 48%
ضغط 1016 hPa
الرؤية: 9000 متر
غيوم قليلة على ارتفاع 3000 قدم

METAR: MUHA 251555Z 18009KT 140V220 9000 FEW030 29/17 Q1016

زمن: 12:21 (16:21 UTC)

توقعات

تاريخ ووقت الإصدار 5ساعات و 21 دقيقة قبل الساعة 11:00UTC
التوقعات صالحة من25 الساعة 12 UTC إلى 26 الساعة 12 UTC
ريح 3 عقدةمن اتجاهات متغيرة
الرؤية: 9000 متر
غيوم قليلة على ارتفاع 3000 قدم
أصبح
من 25 الساعة 14 UTC إلى 25 الساعة 16 UTC
ريح 11 عقدة من الجنوب
أصبح
من 26 الساعة 02 UTC إلى 26 الساعة 04 UTC
ريح 3 عقدةمن اتجاهات متغيرة

TAF: MUHA 251100Z 2512/2612 VRB03KT 9000 FEW030 BECMG 2514/2516 18011KT BECMG 2602/2604 VRB03KT

أرصاد الطقس والتوقعات من أكثر من 4000 مطار (تقارير الطقس للمطار METAR والتنبؤ بالطقس بالمطارTAF).

المحطات المتاحة هي النقط الصفراء والحمراء على الخريطة.

حرك المؤشر فوق النقطة لمعرفة اسم المحطة.

ثم انقر لمعرفة أرصاد وتوقعات الطقس.

لتغيير الخارطة: اضغط على الأزرار الخضراء مع رمز الصليب الأسود للتكبير. على الزر الأخضر مع شرطة للتصغير، أو على الأسهم الخضراء للخرائط المجاورة.


METAR-TAF: